Time;durP1;ratioP1;P1;durP2;ratioP2;P2;SDS_P1;SDS_P2;PMS_P1;PMS_P2;Temp;Humidity;BMP_temperature;BMP_pressure;BME280_temperature;BME280_humidity;BME280_pressure;Samples;Min_cycle;Max_cycle;Signal;HPM_P1;HPM_P2
2022/12/18 00:02:04;;;;;;;15.23;9.40;;;-0.80;99.90;;;;;;5100838;28;20228;-82
2022/12/18 00:04:30;;;;;;;16.23;9.70;;;-0.70;99.90;;;;;;5098668;28;20168;-81
2022/12/18 00:06:56;;;;;;;15.80;9.83;;;-0.70;99.90;;;;;;5100051;28;20221;-80
2022/12/18 00:09:22;;;;;;;14.83;9.67;;;-0.60;99.90;;;;;;5096762;28;20172;-79
2022/12/18 00:11:48;;;;;;;15.27;10.00;;;-0.60;99.90;;;;;;5096068;28;20558;-78
2022/12/18 00:14:14;;;;;;;14.37;9.70;;;-0.70;99.90;;;;;;5095625;28;20174;-78
2022/12/18 00:16:40;;;;;;;18.67;10.97;;;-0.60;99.90;;;;;;5095330;28;20208;-84
2022/12/18 00:19:07;;;;;;;18.07;10.57;;;-0.60;99.90;;;;;;5095368;28;20179;-81
2022/12/18 00:21:33;;;;;;;19.30;11.07;;;-0.70;99.90;;;;;;5076742;28;20201;-81
2022/12/18 00:24:00;;;;;;;15.63;9.57;;;-0.70;99.90;;;;;;5075247;28;20608;-81
2022/12/18 00:26:32;;;;;;;13.33;9.50;;;-0.80;99.90;;;;;;5075160;28;20175;-80
2022/12/18 00:29:06;;;;;;;15.53;9.67;;;-0.80;99.90;;;;;;5078532;28;20250;-81
2022/12/18 00:31:32;;;;;;;15.33;10.07;;;-0.90;99.90;;;;;;5077040;28;20196;-81
2022/12/18 00:33:59;;;;;;;13.43;9.30;;;-1.00;99.90;;;;;;5075269;28;20168;-81
2022/12/18 00:36:27;;;;;;;15.30;9.30;;;-1.10;99.90;;;;;;5074979;28;20175;-83
2022/12/18 00:38:55;;;;;;;13.57;9.67;;;-1.20;99.90;;;;;;5074972;28;20212;-83
2022/12/18 00:44:09;;;;;;;12.93;9.23;;;-1.20;99.90;;;;;;5075405;28;20244;-78
2022/12/18 00:46:35;;;;;;;15.57;9.53;;;-1.40;99.90;;;;;;5075223;28;20177;-82
2022/12/18 00:49:01;;;;;;;14.77;9.63;;;-1.60;99.90;;;;;;5075396;28;20681;-82
2022/12/18 00:51:27;;;;;;;14.57;9.50;;;-1.70;99.90;;;;;;5074491;28;20207;-79
2022/12/18 00:53:53;;;;;;;13.63;8.53;;;-1.80;99.90;;;;;;5074984;28;20186;-78
2022/12/18 00:56:19;;;;;;;14.63;9.60;;;-1.80;99.90;;;;;;5073484;28;20175;-85
2022/12/18 00:58:44;;;;;;;11.87;9.07;;;-1.80;99.90;;;;;;5074679;28;20301;-80
2022/12/18 01:01:10;;;;;;;17.07;9.47;;;-1.70;99.90;;;;;;5075123;28;20179;-77
2022/12/18 01:03:36;;;;;;;12.50;8.87;;;-1.60;99.90;;;;;;5075088;28;20174;-80
2022/12/18 01:06:11;;;;;;;10.87;8.00;;;-1.60;99.90;;;;;;5081929;28;20194;-78
2022/12/18 01:08:38;;;;;;;14.00;8.90;;;-1.70;99.90;;;;;;5083330;28;20175;-79
2022/12/18 01:11:10;;;;;;;13.20;7.90;;;-1.70;99.90;;;;;;5078585;28;20276;-80
2022/12/18 01:13:36;;;;;;;11.80;7.70;;;-1.60;99.90;;;;;;5074223;28;20190;-80
2022/12/18 01:16:01;;;;;;;9.87;7.50;;;-1.60;99.90;;;;;;5074437;28;20202;-79
2022/12/18 01:18:27;;;;;;;10.17;7.30;;;-1.60;99.90;;;;;;5077215;28;20167;-83
2022/12/18 01:20:53;;;;;;;12.53;8.03;;;-1.70;99.90;;;;;;5087073;28;20250;-76
2022/12/18 01:23:19;;;;;;;8.90;7.67;;;-1.60;99.90;;;;;;5092883;28;20166;-82
2022/12/18 01:25:44;;;;;;;9.67;7.30;;;-1.60;99.90;;;;;;5094635;28;20175;-78
2022/12/18 01:28:11;;;;;;;9.10;6.97;;;-1.70;99.90;;;;;;5094606;28;20179;-78
2022/12/18 01:30:36;;;;;;;11.30;7.50;;;-1.70;99.90;;;;;;5092642;28;20206;-80
2022/12/18 01:33:04;;;;;;;9.43;6.90;;;-1.80;99.90;;;;;;5094026;28;20574;-79
2022/12/18 01:35:30;;;;;;;11.17;7.23;;;-1.80;99.90;;;;;;5069514;28;20297;-82
2022/12/18 01:37:56;;;;;;;7.67;6.03;;;-1.80;99.90;;;;;;5071607;28;20261;-80
2022/12/18 01:40:23;;;;;;;11.53;7.73;;;-1.90;99.90;;;;;;5076356;28;20171;-80
2022/12/18 01:42:52;;;;;;;9.87;7.13;;;-1.90;99.90;;;;;;5077167;28;20167;-82
2022/12/18 01:45:18;;;;;;;9.10;6.13;;;-1.90;99.90;;;;;;5073170;28;20181;-82
2022/12/18 01:47:52;;;;;;;9.40;6.57;;;-1.90;99.90;;;;;;5074219;28;20177;-82
2022/12/18 01:50:25;;;;;;;8.00;6.20;;;-1.90;99.90;;;;;;5073196;28;20191;-84
2022/12/18 01:52:57;;;;;;;8.23;6.17;;;-1.90;99.90;;;;;;5072873;28;20183;-84
2022/12/18 01:55:28;;;;;;;9.30;6.40;;;-1.90;99.90;;;;;;5073409;28;20175;-84
2022/12/18 01:57:57;;;;;;;8.37;6.10;;;-1.70;99.90;;;;;;5072827;28;20167;-79
2022/12/18 02:00:24;;;;;;;9.27;6.13;;;-1.70;99.90;;;;;;5073319;28;20172;-80
2022/12/18 02:02:50;;;;;;;7.97;6.70;;;-1.60;99.90;;;;;;5073798;28;20520;-81
2022/12/18 02:05:37;;;;;;;8.83;6.37;;;-1.60;99.90;;;;;;5073498;28;20175;-82
2022/12/18 02:08:13;;;;;;;8.57;6.80;;;-1.50;99.90;;;;;;5073015;28;20219;-80
2022/12/18 02:11:14;;;;;;;7.87;6.00;;;-1.50;99.90;;;;;;5073096;28;20203;-77
2022/12/18 02:13:49;;;;;;;10.23;6.73;;;-1.50;99.90;;;;;;5072767;28;20685;-81
2022/12/18 02:16:28;;;;;;;8.67;6.53;;;-1.60;99.90;;;;;;5072553;28;20173;-83
2022/12/18 02:19:00;;;;;;;10.67;7.50;;;-1.60;99.90;;;;;;5072257;28;20156;-83
2022/12/18 02:21:48;;;;;;;9.90;7.23;;;-1.60;99.90;;;;;;5072646;28;20169;-82
2022/12/18 02:24:41;;;;;;;9.83;6.90;;;-1.60;99.90;;;;;;5072765;28;20623;-82
2022/12/18 02:27:09;;;;;;;8.67;6.70;;;-1.60;99.90;;;;;;5072884;28;20228;-83
2022/12/18 02:29:51;;;;;;;9.67;6.77;;;-1.70;99.90;;;;;;5072518;28;20177;-80
2022/12/18 02:32:24;;;;;;;9.97;6.80;;;-1.70;99.90;;;;;;5078453;28;20198;-84
2022/12/18 02:34:52;;;;;;;10.53;6.77;;;-1.70;99.90;;;;;;5072636;28;20170;-85
2022/12/18 02:37:20;;;;;;;9.93;7.10;;;-1.70;99.90;;;;;;5072958;28;20252;-82
2022/12/18 02:39:48;;;;;;;8.83;6.93;;;-1.70;99.90;;;;;;5072507;28;20159;-83
2022/12/18 02:42:14;;;;;;;11.80;7.23;;;-1.80;99.90;;;;;;5071940;28;20182;-84
2022/12/18 02:44:45;;;;;;;11.67;7.53;;;-1.90;99.90;;;;;;5072448;28;20218;-81
2022/12/18 02:47:13;;;;;;;13.47;8.20;;;-1.90;99.90;;;;;;5072424;28;20167;-85
2022/12/18 02:49:55;;;;;;;8.10;6.77;;;-1.80;99.90;;;;;;5072513;28;20637;-82
2022/12/18 02:52:39;;;;;;;10.53;7.00;;;-1.80;99.90;;;;;;5072678;28;20182;-79
2022/12/18 02:55:10;;;;;;;14.33;7.50;;;-1.80;99.90;;;;;;5072436;28;20175;-81
2022/12/18 02:57:57;;;;;;;12.40;7.57;;;-1.80;99.90;;;;;;5071523;28;20167;-82
2022/12/18 03:00:31;;;;;;;13.57;7.47;;;-1.80;99.90;;;;;;5072632;28;20163;-82
2022/12/18 03:03:05;;;;;;;11.63;7.33;;;-1.90;99.90;;;;;;5072988;28;20587;-81
2022/12/18 03:05:45;;;;;;;11.90;8.40;;;-1.90;99.90;;;;;;5071537;28;20170;-81
2022/12/18 03:08:20;;;;;;;11.90;7.47;;;-1.90;99.90;;;;;;5070215;28;20376;-81
2022/12/18 03:11:02;;;;;;;12.03;7.90;;;-2.00;99.90;;;;;;5065461;28;20752;-80
2022/12/18 03:13:57;;;;;;;9.83;6.60;;;-1.90;99.90;;;;;;5071959;28;20229;-80
2022/12/18 03:16:26;;;;;;;11.77;7.13;;;-1.90;99.90;;;;;;5070962;28;20171;-77
2022/12/18 03:19:00;;;;;;;8.33;6.60;;;-2.30;99.90;;;;;;5083266;28;20155;-80
2022/12/18 03:21:36;;;;;;;12.40;7.23;;;-2.30;99.90;;;;;;5094645;28;20692;-80
2022/12/18 03:24:07;;;;;;;7.57;6.17;;;-2.20;99.90;;;;;;5093014;28;20162;-82
2022/12/18 03:26:37;;;;;;;7.27;5.60;;;-2.20;99.90;;;;;;5092682;28;20151;-82
2022/12/18 03:29:09;;;;;;;8.60;5.67;;;-2.20;99.90;;;;;;5092165;28;20188;-80
2022/12/18 03:31:40;;;;;;;8.00;5.63;;;-2.20;99.90;;;;;;5092350;28;20195;-82
2022/12/18 03:34:13;;;;;;;8.30;6.30;;;-2.20;99.90;;;;;;5092644;28;20174;-85
2022/12/18 03:36:38;;;;;;;8.70;6.30;;;-2.20;99.90;;;;;;5085214;28;20896;-82
2022/12/18 03:39:04;;;;;;;9.63;6.33;;;-2.20;99.90;;;;;;5071709;28;20179;-84
2022/12/18 03:42:16;;;;;;;7.23;5.87;;;-2.20;99.90;;;;;;5071993;28;20645;-81
2022/12/18 03:45:05;;;;;;;8.63;6.10;;;-2.50;99.90;;;;;;5055873;28;20179;-83
2022/12/18 03:47:41;;;;;;;10.63;6.37;;;-2.50;99.90;;;;;;5070660;28;20821;-82
2022/12/18 03:50:12;;;;;;;10.07;6.03;;;-2.70;99.90;;;;;;5072069;28;20198;-79
2022/12/18 03:53:02;;;;;;;9.13;6.03;;;-2.70;99.90;;;;;;5056042;28;20183;-81
2022/12/18 03:55:33;;;;;;;7.67;5.40;;;-2.90;99.90;;;;;;5075496;28;20171;-82
2022/12/18 03:58:01;;;;;;;8.37;6.17;;;-2.80;99.90;;;;;;5074485;28;20182;-81
2022/12/18 04:00:30;;;;;;;7.03;5.20;;;-2.80;99.90;;;;;;5074243;28;20175;-82
2022/12/18 04:02:58;;;;;;;7.53;5.03;;;-2.80;99.90;;;;;;5075194;28;20684;-83
2022/12/18 04:05:26;;;;;;;5.47;4.97;;;-2.70;99.90;;;;;;5075276;28;20167;-84
2022/12/18 04:07:53;;;;;;;7.93;5.23;;;-2.70;99.90;;;;;;5074993;28;20321;-80
2022/12/18 04:10:19;;;;;;;5.70;4.83;;;-2.80;99.90;;;;;;5074216;28;20195;-82
2022/12/18 04:12:45;;;;;;;7.43;5.80;;;-2.70;99.90;;;;;;5075334;28;20179;-83
2022/12/18 04:15:11;;;;;;;7.30;5.10;;;-2.60;99.90;;;;;;5074945;28;20177;-83
2022/12/18 04:17:38;;;;;;;6.07;5.30;;;-2.50;99.90;;;;;;5075058;28;20289;-81
2022/12/18 04:20:04;;;;;;;7.37;4.93;;;-2.50;99.90;;;;;;5081031;28;20185;-84
2022/12/18 04:22:30;;;;;;;6.57;4.97;;;-2.20;99.90;;;;;;5095522;28;20193;-81
2022/12/18 04:24:56;;;;;;;6.70;4.77;;;-2.20;99.90;;;;;;5095503;28;20174;-77
2022/12/18 04:27:21;;;;;;;6.47;5.17;;;-2.20;99.90;;;;;;5097552;28;20170;-83
2022/12/18 04:29:47;;;;;;;5.70;4.67;;;-2.20;99.90;;;;;;5096275;28;20668;-81
2022/12/18 04:32:13;;;;;;;5.47;4.97;;;-2.10;99.90;;;;;;5095306;28;20202;-82
2022/12/18 04:34:39;;;;;;;8.80;5.70;;;-2.10;99.90;;;;;;5095390;28;20178;-82
2022/12/18 04:37:05;;;;;;;18.53;11.13;;;-2.10;99.90;;;;;;5095633;28;20602;-81
2022/12/18 04:39:31;;;;;;;12.50;7.80;;;-2.20;99.90;;;;;;5095754;28;20171;-81
2022/12/18 04:41:59;;;;;;;11.27;7.27;;;-2.10;99.90;;;;;;5095295;28;20219;-79
2022/12/18 04:44:25;;;;;;;8.07;5.70;;;-2.20;99.90;;;;;;5095349;28;20174;-78
2022/12/18 04:46:51;;;;;;;10.43;6.70;;;-2.20;99.90;;;;;;5095241;28;20544;-78
2022/12/18 04:49:16;;;;;;;8.30;5.93;;;-2.20;99.90;;;;;;5095251;28;20170;-80
2022/12/18 04:51:42;;;;;;;6.37;5.40;;;-2.30;99.90;;;;;;5095054;28;20657;-82
2022/12/18 04:54:08;;;;;;;8.77;6.00;;;-2.40;99.90;;;;;;5087826;28;20548;-82
2022/12/18 04:56:34;;;;;;;7.00;5.37;;;-2.40;99.90;;;;;;5080191;28;20574;-84
2022/12/18 04:59:00;;;;;;;8.67;5.87;;;-2.40;99.90;;;;;;5086699;28;20219;-80
2022/12/18 05:01:27;;;;;;;9.43;6.73;;;-2.40;99.90;;;;;;5087573;28;20189;-79
2022/12/18 05:03:52;;;;;;;8.03;6.30;;;-2.40;99.90;;;;;;5081111;28;20197;-78
2022/12/18 05:06:18;;;;;;;11.33;6.70;;;-2.30;99.90;;;;;;5074512;28;20577;-79
2022/12/18 05:08:44;;;;;;;12.93;6.97;;;-2.30;99.90;;;;;;5073189;28;20187;-78
2022/12/18 05:11:14;;;;;;;9.90;6.50;;;-2.30;99.90;;;;;;5091602;28;20289;-83
2022/12/18 05:13:40;;;;;;;9.60;6.93;;;-2.30;99.90;;;;;;5074368;28;20646;-80
2022/12/18 05:16:06;;;;;;;9.03;7.07;;;-2.40;99.90;;;;;;5072823;28;20171;-84
2022/12/18 05:18:32;;;;;;;11.37;7.43;;;-2.40;99.90;;;;;;5074092;28;20175;-80
2022/12/18 05:20:58;;;;;;;13.27;7.33;;;-2.40;99.90;;;;;;5087409;28;20175;-81
2022/12/18 05:23:24;;;;;;;9.87;7.07;;;-2.30;99.90;;;;;;5093084;28;20166;-78
2022/12/18 05:25:55;;;;;;;9.77;7.00;;;-2.30;99.90;;;;;;5094126;28;20219;-79
2022/12/18 05:28:22;;;;;;;13.07;7.37;;;-2.30;99.90;;;;;;5074057;28;20183;-82
2022/12/18 05:30:58;;;;;;;13.50;8.50;;;-2.30;99.90;;;;;;5080110;28;20221;-79
2022/12/18 05:33:26;;;;;;;13.00;7.97;;;-2.20;99.90;;;;;;5083525;28;20250;-79
2022/12/18 05:36:00;;;;;;;12.87;7.10;;;-2.20;99.90;;;;;;5074635;28;20224;-78
2022/12/18 05:38:27;;;;;;;13.00;8.17;;;-2.20;99.90;;;;;;5074098;28;20573;-81
2022/12/18 05:40:53;;;;;;;11.43;7.97;;;-2.10;99.90;;;;;;5073839;28;20175;-81
2022/12/18 05:43:21;;;;;;;12.50;8.17;;;-2.20;99.90;;;;;;5073604;28;20174;-79
2022/12/18 05:45:48;;;;;;;14.43;8.50;;;-2.20;99.90;;;;;;5073562;28;20258;-80
2022/12/18 05:48:14;;;;;;;14.63;8.57;;;-2.30;99.90;;;;;;5073621;28;20167;-80
2022/12/18 05:50:42;;;;;;;12.43;8.07;;;-2.30;99.90;;;;;;5073489;28;20203;-83
2022/12/18 05:53:08;;;;;;;13.13;8.00;;;-2.30;99.90;;;;;;5073812;28;20229;-82
2022/12/18 05:55:35;;;;;;;12.73;8.57;;;-2.30;99.90;;;;;;5074909;28;20175;-81
2022/12/18 05:58:02;;;;;;;16.83;8.80;;;-2.30;99.90;;;;;;5075516;28;20178;-83
2022/12/18 06:00:28;;;;;;;14.40;8.90;;;-2.40;99.90;;;;;;5075064;28;20178;-81
2022/12/18 06:02:54;;;;;;;13.37;8.83;;;-2.40;99.90;;;;;;5073531;28;20171;-86
2022/12/18 06:05:20;;;;;;;14.33;9.07;;;-2.50;99.90;;;;;;5072221;28;20239;-84
2022/12/18 06:07:46;;;;;;;14.70;9.97;;;-2.40;99.90;;;;;;5074663;28;20300;-85
2022/12/18 06:10:12;;;;;;;16.17;9.30;;;-2.50;99.90;;;;;;5077363;28;20163;-82
2022/12/18 06:12:37;;;;;;;14.50;9.27;;;-2.50;99.90;;;;;;5074405;28;20305;-83
2022/12/18 06:15:03;;;;;;;11.87;8.47;;;-2.50;99.90;;;;;;5073237;28;20663;-85
2022/12/18 06:17:31;;;;;;;16.27;8.67;;;-2.40;99.90;;;;;;5073295;28;20167;-83
2022/12/18 06:19:56;;;;;;;18.03;10.83;;;-2.40;99.90;;;;;;5077936;28;20642;-77
2022/12/18 06:22:22;;;;;;;16.43;9.60;;;-2.30;99.90;;;;;;5093224;28;20171;-82
2022/12/18 06:24:48;;;;;;;15.73;8.93;;;-2.30;99.90;;;;;;5093332;28;20170;-77
2022/12/18 06:27:15;;;;;;;16.70;10.07;;;-2.30;99.90;;;;;;5093222;28;20180;-78
2022/12/18 06:29:40;;;;;;;13.30;8.10;;;-2.30;99.90;;;;;;5093287;28;20597;-78
2022/12/18 06:32:06;;;;;;;14.23;8.27;;;-2.40;99.90;;;;;;5093489;28;20198;-79
2022/12/18 06:34:33;;;;;;;14.10;8.67;;;-2.40;99.90;;;;;;5093619;28;20198;-79
2022/12/18 06:36:59;;;;;;;10.03;7.80;;;-2.20;99.90;;;;;;5093403;28;20170;-80
2022/12/18 06:39:27;;;;;;;12.67;7.97;;;-2.30;99.90;;;;;;5097541;28;20166;-80
2022/12/18 06:41:53;;;;;;;12.13;7.17;;;-2.30;99.90;;;;;;5094745;28;20644;-83
2022/12/18 06:44:19;;;;;;;13.43;9.10;;;-2.20;99.90;;;;;;5094906;28;20252;-81
2022/12/18 06:46:45;;;;;;;14.53;7.93;;;-2.20;99.90;;;;;;5093106;28;20187;-80
2022/12/18 06:49:11;;;;;;;11.17;7.33;;;-2.20;99.90;;;;;;5092873;28;20185;-80
2022/12/18 06:51:36;;;;;;;12.40;7.40;;;-2.20;99.90;;;;;;5092759;28;20213;-80
2022/12/18 06:54:02;;;;;;;9.53;6.77;;;-2.20;99.90;;;;;;5092862;28;20171;-79
2022/12/18 06:56:28;;;;;;;10.70;6.93;;;-2.30;99.90;;;;;;5092808;28;20181;-83
2022/12/18 06:58:54;;;;;;;8.83;7.00;;;-2.40;99.90;;;;;;5092732;28;20227;-80
2022/12/18 07:01:20;;;;;;;8.40;5.60;;;-2.40;99.90;;;;;;5092716;28;20178;-79
2022/12/18 07:03:47;;;;;;;9.63;6.70;;;-2.30;99.90;;;;;;5092838;28;20325;-80
2022/12/18 07:06:14;;;;;;;9.87;6.10;;;-2.20;99.90;;;;;;5092817;28;20253;-82
2022/12/18 07:08:40;;;;;;;9.03;5.73;;;-2.20;99.90;;;;;;5091714;28;20184;-80
2022/12/18 07:11:06;;;;;;;7.00;5.30;;;-2.10;99.90;;;;;;5091617;28;20215;-83
2022/12/18 07:13:32;;;;;;;7.97;5.80;;;-2.00;99.90;;;;;;5092626;28;20166;-83
2022/12/18 07:16:30;;;;;;;6.37;5.13;;;-2.00;99.90;;;;;;5092922;28;20178;-84
2022/12/18 07:18:56;;;;;;;9.87;5.97;;;-2.00;99.90;;;;;;5033850;28;20592;-82
2022/12/18 07:21:23;;;;;;;7.43;5.50;;;-1.80;99.90;;;;;;5035007;28;20176;-79
2022/12/18 07:23:49;;;;;;;7.17;5.73;;;-1.70;99.90;;;;;;5032050;28;20254;-80
2022/12/18 07:26:19;;;;;;;8.50;6.00;;;-1.80;99.90;;;;;;5031485;28;20233;-79
2022/12/18 07:28:46;;;;;;;7.07;5.50;;;-1.80;99.90;;;;;;5017479;28;20177;-79
2022/12/18 07:31:15;;;;;;;7.27;5.83;;;-1.80;99.90;;;;;;5017792;28;20235;-80
2022/12/18 07:33:41;;;;;;;7.87;5.40;;;-1.80;99.90;;;;;;5034968;28;20172;-83
2022/12/18 07:36:09;;;;;;;8.53;5.90;;;-1.70;99.90;;;;;;5036874;28;20185;-82
2022/12/18 07:38:35;;;;;;;6.13;5.30;;;-1.70;99.90;;;;;;5034658;28;20173;-82
2022/12/18 07:41:02;;;;;;;9.10;5.83;;;-1.70;99.90;;;;;;5039245;28;20268;-81
2022/12/18 07:43:28;;;;;;;6.50;5.07;;;-1.60;99.90;;;;;;5026270;28;20189;-83
2022/12/18 07:45:54;;;;;;;6.47;5.20;;;-1.50;99.90;;;;;;5039760;28;20184;-83
2022/12/18 07:48:20;;;;;;;5.10;4.43;;;-1.40;99.90;;;;;;5037277;28;20220;-83
2022/12/18 07:50:46;;;;;;;7.13;4.60;;;-1.50;99.90;;;;;;5035405;28;20216;-86
2022/12/18 07:53:11;;;;;;;5.57;4.30;;;-1.40;99.90;;;;;;5034454;28;20177;-82
2022/12/18 07:55:37;;;;;;;5.17;4.60;;;-1.60;99.90;;;;;;5075289;28;20253;-83
2022/12/18 07:58:04;;;;;;;5.07;4.50;;;-1.50;99.90;;;;;;5077061;28;20201;-81
2022/12/18 08:00:30;;;;;;;5.00;4.50;;;-1.50;99.90;;;;;;5076772;28;20175;-81
2022/12/18 08:02:56;;;;;;;8.00;4.90;;;-1.40;99.90;;;;;;5076607;28;20174;-81
2022/12/18 08:05:22;;;;;;;5.37;4.40;;;-1.40;99.90;;;;;;5076227;28;20199;-83
2022/12/18 08:07:48;;;;;;;6.43;4.83;;;-1.40;99.90;;;;;;5079149;28;20222;-80
2022/12/18 08:10:14;;;;;;;7.43;4.63;;;-1.30;99.90;;;;;;5087457;28;20176;-82
2022/12/18 08:12:40;;;;;;;5.90;4.63;;;-1.40;99.90;;;;;;5080226;28;20643;-80
2022/12/18 08:15:06;;;;;;;6.33;4.87;;;-1.20;99.90;;;;;;5076501;28;20178;-82
2022/12/18 08:17:32;;;;;;;5.97;4.67;;;-1.20;99.90;;;;;;5077192;28;20709;-79
2022/12/18 08:19:58;;;;;;;6.27;5.20;;;-1.10;99.90;;;;;;5080644;28;20205;-81
2022/12/18 08:22:23;;;;;;;5.77;4.60;;;-1.00;99.90;;;;;;5095413;28;20507;-80
2022/12/18 08:24:49;;;;;;;6.67;5.00;;;-0.90;99.90;;;;;;5095489;28;20172;-84
2022/12/18 08:27:15;;;;;;;6.37;4.90;;;-0.80;99.90;;;;;;5095594;28;20280;-81
2022/12/18 08:29:41;;;;;;;7.00;5.27;;;-0.80;99.90;;;;;;5095329;28;20174;-84
2022/12/18 08:32:07;;;;;;;6.20;4.83;;;-0.70;99.90;;;;;;5097310;28;20317;-78
2022/12/18 08:34:33;;;;;;;5.30;4.30;;;-0.70;99.90;;;;;;5101105;28;20178;-83
2022/12/18 08:36:58;;;;;;;6.43;4.77;;;-0.80;99.90;;;;;;5095737;28;20531;-83
2022/12/18 08:39:24;;;;;;;6.67;5.30;;;-0.80;99.90;;;;;;5096620;28;20176;-81
2022/12/18 08:44:37;;;;;;;8.07;4.97;;;-0.90;99.90;;;;;;5095371;28;20163;-83
2022/12/18 08:47:03;;;;;;;8.00;4.53;;;-1.00;99.90;;;;;;5095353;28;20201;-84
2022/12/18 08:49:29;;;;;;;6.20;4.97;;;-1.00;99.90;;;;;;5095102;28;20530;-83
2022/12/18 08:51:59;;;;;;;6.17;5.17;;;-1.00;99.90;;;;;;5096511;28;20263;-83
2022/12/18 08:54:25;;;;;;;7.07;5.17;;;-1.00;99.90;;;;;;5097155;28;20168;-81
2022/12/18 08:56:51;;;;;;;8.17;5.00;;;-1.00;99.90;;;;;;5093910;28;20219;-81
2022/12/18 08:59:18;;;;;;;8.27;5.63;;;-1.00;99.90;;;;;;5093633;28;20215;-77
2022/12/18 09:01:45;;;;;;;6.90;5.00;;;-1.00;99.90;;;;;;5076023;28;20588;-82
2022/12/18 09:04:11;;;;;;;8.30;4.90;;;-1.00;99.90;;;;;;5073004;28;20187;-80
2022/12/18 09:06:37;;;;;;;8.13;5.13;;;-1.00;99.90;;;;;;5069007;28;20285;-78
2022/12/18 09:09:04;;;;;;;9.27;5.57;;;-1.00;99.90;;;;;;5075115;28;20226;-83
2022/12/18 09:11:31;;;;;;;7.10;5.87;;;-0.90;99.90;;;;;;5073949;28;20293;-82
2022/12/18 09:13:58;;;;;;;7.90;5.80;;;-0.90;99.90;;;;;;5073787;28;20637;-83
2022/12/18 09:16:25;;;;;;;8.80;6.53;;;-0.80;99.90;;;;;;5073963;28;20216;-82
2022/12/18 09:18:51;;;;;;;10.43;6.97;;;-0.70;99.90;;;;;;5073398;28;20168;-83
2022/12/18 09:21:19;;;;;;;9.23;7.53;;;-0.70;99.90;;;;;;5090383;28;20662;-85
2022/12/18 09:23:50;;;;;;;9.90;7.47;;;-0.60;99.90;;;;;;5093756;28;20160;-82
2022/12/18 09:26:16;;;;;;;12.37;8.83;;;-0.60;99.90;;;;;;5095432;28;20518;-83
2022/12/18 09:28:42;;;;;;;13.63;9.43;;;-0.60;99.90;;;;;;5094413;28;20175;-83
2022/12/18 09:31:09;;;;;;;12.93;8.73;;;-0.60;99.90;;;;;;5094040;28;20603;-84
2022/12/18 09:33:38;;;;;;;10.10;7.43;;;-0.60;99.90;;;;;;5094019;28;20193;-83
2022/12/18 09:36:06;;;;;;;11.23;7.53;;;-0.60;99.90;;;;;;5094001;28;20259;-81
2022/12/18 09:38:33;;;;;;;11.63;8.37;;;-0.50;99.90;;;;;;5093937;28;20172;-80
2022/12/18 09:41:25;;;;;;;10.57;8.10;;;-0.50;99.90;;;;;;5094000;28;20187;-83
2022/12/18 09:43:56;;;;;;;11.03;7.83;;;-0.40;99.90;;;;;;5094609;28;20153;-84
2022/12/18 09:46:30;;;;;;;11.57;7.90;;;-0.40;99.90;;;;;;5102960;28;20301;-82
2022/12/18 09:49:06;;;;;;;14.47;8.27;;;-0.30;99.90;;;;;;5088143;28;20203;-79
2022/12/18 09:51:59;;;;;;;11.67;8.60;;;-0.30;99.90;;;;;;5053547;28;20686;-79
2022/12/18 09:54:38;;;;;;;11.80;8.50;;;-0.30;99.90;;;;;;5054974;28;20246;-80
2022/12/18 09:57:04;;;;;;;13.17;8.90;;;-0.20;99.90;;;;;;5056452;28;20167;-79
2022/12/18 09:59:39;;;;;;;13.90;9.10;;;-0.20;99.90;;;;;;5069987;28;20217;-77
2022/12/18 10:02:23;;;;;;;11.97;8.67;;;0.00;99.90;;;;;;5071482;28;20665;-79
2022/12/18 10:05:05;;;;;;;11.60;8.57;;;0.20;99.90;;;;;;5072711;28;20177;-82
2022/12/18 10:08:03;;;;;;;12.57;8.33;;;0.30;99.90;;;;;;5072956;28;20884;-79
2022/12/18 10:10:41;;;;;;;11.23;8.20;;;0.40;99.90;;;;;;5046407;28;20213;-79
2022/12/18 10:13:22;;;;;;;13.03;9.37;;;0.60;99.90;;;;;;5073098;28;20178;-78
2022/12/18 10:16:15;;;;;;;13.80;8.37;;;0.70;99.90;;;;;;5071875;28;20180;-78
2022/12/18 10:19:04;;;;;;;11.60;8.53;;;0.80;99.90;;;;;;5072981;28;20248;-83
2022/12/18 10:21:48;;;;;;;15.13;9.27;;;1.00;99.90;;;;;;5080257;28;20185;-77
2022/12/18 10:24:43;;;;;;;12.47;8.20;;;1.20;99.90;;;;;;5071741;28;20173;-81
2022/12/18 10:27:17;;;;;;;16.83;9.53;;;1.30;99.90;;;;;;5072463;28;20521;-79
2022/12/18 10:29:45;;;;;;;13.23;8.97;;;1.40;99.90;;;;;;5073200;28;20243;-81
2022/12/18 10:32:20;;;;;;;15.27;9.13;;;1.50;99.90;;;;;;5072217;28;20686;-81
2022/12/18 10:34:52;;;;;;;14.80;9.20;;;1.50;99.90;;;;;;5073837;28;20242;-81
2022/12/18 10:37:20;;;;;;;14.57;9.47;;;1.60;99.90;;;;;;5072561;28;20159;-76
2022/12/18 10:40:05;;;;;;;15.27;10.33;;;1.40;99.90;;;;;;5072751;28;20266;-80
2022/12/18 10:42:31;;;;;;;17.13;11.17;;;1.60;99.90;;;;;;5070191;28;20182;-80
2022/12/18 10:45:19;;;;;;;22.50;11.83;;;1.50;99.90;;;;;;5070066;28;20253;-78
2022/12/18 10:47:48;;;;;;;17.37;11.87;;;1.60;99.90;;;;;;5072691;28;20732;-83
2022/12/18 10:50:36;;;;;;;20.07;12.33;;;1.50;99.90;;;;;;5071121;28;20166;-78
2022/12/18 10:53:04;;;;;;;15.40;10.07;;;1.50;99.90;;;;;;5071288;28;20180;-78
2022/12/18 10:55:36;;;;;;;15.67;9.53;;;1.60;99.90;;;;;;5072324;28;20266;-78
2022/12/18 10:58:13;;;;;;;17.50;10.87;;;1.60;99.90;;;;;;5071924;28;20205;-79
2022/12/18 11:00:39;;;;;;;16.13;10.87;;;1.70;99.90;;;;;;5072368;28;20163;-79
2022/12/18 11:03:35;;;;;;;19.10;11.47;;;1.70;99.90;;;;;;5074956;28;20179;-79
2022/12/18 11:06:07;;;;;;;17.13;10.37;;;1.70;99.90;;;;;;5076123;28;20182;-78
2022/12/18 11:08:33;;;;;;;17.33;10.37;;;1.60;99.90;;;;;;5075097;28;20177;-82
2022/12/18 11:10:59;;;;;;;17.47;11.23;;;1.60;99.90;;;;;;5075867;28;20213;-78
2022/12/18 11:13:27;;;;;;;16.90;10.83;;;1.60;99.90;;;;;;5076147;28;20284;-80
2022/12/18 11:15:54;;;;;;;18.80;11.60;;;1.50;99.90;;;;;;5075324;28;20189;-83
2022/12/18 11:18:30;;;;;;;17.80;11.13;;;1.40;99.90;;;;;;5076133;28;20174;-87
2022/12/18 11:21:07;;;;;;;17.27;10.27;;;1.30;99.90;;;;;;5076588;28;20264;-84
2022/12/18 11:23:34;;;;;;;19.00;10.60;;;1.30;99.90;;;;;;5074663;28;20177;-84
2022/12/18 11:26:03;;;;;;;16.73;11.00;;;1.20;99.90;;;;;;5077295;28;20173;-83
2022/12/18 11:28:43;;;;;;;16.67;10.27;;;1.20;99.90;;;;;;5097562;28;20173;-85
2022/12/18 11:31:12;;;;;;;18.73;11.10;;;1.20;99.90;;;;;;5089113;28;20212;-81
2022/12/18 11:33:41;;;;;;;18.57;10.37;;;1.10;99.90;;;;;;5089878;28;20576;-82
2022/12/18 11:36:09;;;;;;;18.83;11.73;;;1.10;99.90;;;;;;5105635;28;20281;-82
2022/12/18 11:38:40;;;;;;;20.27;11.33;;;1.20;99.90;;;;;;5085444;28;20651;-82
2022/12/18 11:42:08;;;;;;;17.53;10.87;;;1.20;99.90;;;;;;5076470;28;20520;-83
2022/12/18 11:44:29;;;;;;;16.37;10.93;;;1.20;99.90;;;;;;5074717;28;20584;-86
2022/12/18 11:47:17;;;;;;;18.40;10.33;;;1.20;99.90;;;;;;5083724;28;20648;-84
2022/12/18 11:49:46;;;;;;;20.47;11.87;;;1.20;99.90;;;;;;5095272;28;20200;-82
2022/12/18 11:52:29;;;;;;;18.83;11.70;;;1.10;99.90;;;;;;5095269;28;20211;-84
2022/12/18 11:55:00;;;;;;;23.37;12.70;;;1.10;99.90;;;;;;5095175;28;20191;-84
2022/12/18 11:57:39;;;;;;;18.13;11.73;;;1.10;99.90;;;;;;5095900;28;20163;-86
2022/12/18 12:00:12;;;;;;;20.03;12.00;;;1.10;99.90;;;;;;5093565;28;20157;-83
2022/12/18 12:03:02;;;;;;;23.63;12.50;;;1.10;99.90;;;;;;5078642;28;20246;-84
2022/12/18 12:05:47;;;;;;;23.50;12.67;;;1.00;99.90;;;;;;5107553;28;20271;-79
2022/12/18 12:08:42;;;;;;;23.07;13.03;;;1.00;99.90;;;;;;5094715;28;20217;-82
2022/12/18 12:11:26;;;;;;;18.70;11.70;;;0.90;99.90;;;;;;5103777;28;20209;-83
2022/12/18 12:14:24;;;;;;;19.23;12.03;;;0.80;99.90;;;;;;5064295;28;20250;-83
2022/12/18 12:16:55;;;;;;;23.17;13.13;;;0.60;99.90;;;;;;5095839;28;20190;-84
2022/12/18 12:19:47;;;;;;;20.73;12.83;;;0.70;99.90;;;;;;5088768;28;20188;-86
2022/12/18 12:22:44;;;;;;;21.03;12.10;;;0.80;99.90;;;;;;5086997;28;20238;-84
2022/12/18 12:25:30;;;;;;;21.60;12.33;;;0.70;99.90;;;;;;5081354;28;20175;-83
2022/12/18 12:28:44;;;;;;;21.27;12.00;;;0.60;99.90;;;;;;5078693;28;20184;-85
2022/12/18 12:31:22;;;;;;;22.87;12.90;;;0.60;99.90;;;;;;5056286;28;20637;-83
2022/12/18 12:33:48;;;;;;;19.37;12.30;;;0.60;99.90;;;;;;5075779;28;20516;-88
2022/12/18 12:36:25;;;;;;;22.77;13.27;;;0.60;99.90;;;;;;5079905;28;20228;-84
2022/12/18 12:38:58;;;;;;;26.03;15.80;;;0.50;99.90;;;;;;5074072;28;20177;-89
2022/12/18 12:44:20;;;;;;;21.73;12.80;;;0.60;99.90;;;;;;5081572;28;20195;-83
2022/12/18 12:46:47;;;;;;;22.60;13.37;;;0.50;99.90;;;;;;5086634;28;20162;-81
2022/12/18 12:49:19;;;;;;;24.50;14.97;;;0.40;99.90;;;;;;5077115;28;20173;-84
2022/12/18 12:51:53;;;;;;;26.83;15.23;;;0.50;99.90;;;;;;5077810;28;20227;-88
2022/12/18 12:54:24;;;;;;;24.20;12.70;;;0.50;99.90;;;;;;5094360;28;20157;-92
2022/12/18 12:57:23;;;;;;;26.07;15.53;;;0.50;99.90;;;;;;5076520;28;20185;-90
2022/12/18 13:00:11;;;;;;;25.67;14.90;;;0.60;99.90;;;;;;5077769;28;20531;-89
2022/12/18 13:02:59;;;;;;;23.50;14.23;;;0.60;99.90;;;;;;5074926;28;20171;-89
2022/12/18 13:05:43;;;;;;;22.33;12.90;;;0.50;99.90;;;;;;5081911;28;20221;-91
2022/12/18 13:08:12;;;;;;;22.23;12.13;;;0.60;99.90;;;;;;5105341;28;20222;-92
2022/12/18 13:10:42;;;;;;;21.60;12.33;;;0.50;99.90;;;;;;5106021;28;20195;-88